sensor_id;sensor_type;location;lat;lon;timestamp;P1;durP1;ratioP1;P2;durP2;ratioP2
67372;SDS011;54257;54.496;18.412;2023-06-22T00:02:24;7.50;;;6.80;;
67372;SDS011;54257;54.496;18.412;2023-06-22T00:08:20;9.60;;;7.70;;
67372;SDS011;54257;54.496;18.412;2023-06-22T00:10:54;8.80;;;7.30;;
67372;SDS011;54257;54.496;18.412;2023-06-22T00:16:58;9.00;;;7.30;;
67372;SDS011;54257;54.496;18.412;2023-06-22T00:19:24;13.20;;;8.20;;
67372;SDS011;54257;54.496;18.412;2023-06-22T00:22:13;10.80;;;7.70;;
67372;SDS011;54257;54.496;18.412;2023-06-22T00:25:05;9.20;;;7.60;;
67372;SDS011;54257;54.496;18.412;2023-06-22T00:28:02;10.10;;;6.80;;
67372;SDS011;54257;54.496;18.412;2023-06-22T00:31:10;11.10;;;7.40;;
67372;SDS011;54257;54.496;18.412;2023-06-22T00:36:56;10.00;;;6.90;;
67372;SDS011;54257;54.496;18.412;2023-06-22T00:42:29;9.00;;;7.50;;
67372;SDS011;54257;54.496;18.412;2023-06-22T00:44:58;14.50;;;8.20;;
67372;SDS011;54257;54.496;18.412;2023-06-22T00:47:51;9.60;;;7.30;;
67372;SDS011;54257;54.496;18.412;2023-06-22T00:50:42;10.10;;;8.20;;
67372;SDS011;54257;54.496;18.412;2023-06-22T00:53:51;11.30;;;7.60;;
67372;SDS011;54257;54.496;18.412;2023-06-22T00:57:22;9.50;;;7.00;;
67372;SDS011;54257;54.496;18.412;2023-06-22T01:00:42;8.50;;;7.60;;
67372;SDS011;54257;54.496;18.412;2023-06-22T01:03:40;8.80;;;7.40;;
67372;SDS011;54257;54.496;18.412;2023-06-22T01:07:01;8.80;;;7.00;;
67372;SDS011;54257;54.496;18.412;2023-06-22T01:10:51;8.00;;;7.20;;
67372;SDS011;54257;54.496;18.412;2023-06-22T01:17:13;11.10;;;7.60;;
67372;SDS011;54257;54.496;18.412;2023-06-22T01:20:43;11.50;;;7.60;;
67372;SDS011;54257;54.496;18.412;2023-06-22T01:29:45;8.90;;;7.30;;
67372;SDS011;54257;54.496;18.412;2023-06-22T01:37:04;8.20;;;7.30;;
67372;SDS011;54257;54.496;18.412;2023-06-22T01:39:48;9.20;;;7.20;;
67372;SDS011;54257;54.496;18.412;2023-06-22T01:46:39;9.70;;;7.70;;
67372;SDS011;54257;54.496;18.412;2023-06-22T01:49:19;9.10;;;7.70;;
67372;SDS011;54257;54.496;18.412;2023-06-22T01:51:56;10.00;;;8.20;;
67372;SDS011;54257;54.496;18.412;2023-06-22T01:54:34;9.50;;;7.70;;
67372;SDS011;54257;54.496;18.412;2023-06-22T02:00:36;11.20;;;8.30;;
67372;SDS011;54257;54.496;18.412;2023-06-22T02:10:52;14.50;;;9.30;;
67372;SDS011;54257;54.496;18.412;2023-06-22T02:13:37;11.40;;;9.20;;
67372;SDS011;54257;54.496;18.412;2023-06-22T02:20:15;14.40;;;10.40;;
67372;SDS011;54257;54.496;18.412;2023-06-22T02:23:20;14.90;;;10.30;;
67372;SDS011;54257;54.496;18.412;2023-06-22T02:26:07;12.40;;;10.80;;
67372;SDS011;54257;54.496;18.412;2023-06-22T02:28:52;13.00;;;10.50;;
67372;SDS011;54257;54.496;18.412;2023-06-22T02:32:00;13.40;;;11.10;;
67372;SDS011;54257;54.496;18.412;2023-06-22T02:37:33;14.40;;;11.20;;
67372;SDS011;54257;54.496;18.412;2023-06-22T02:40:34;12.70;;;11.20;;
67372;SDS011;54257;54.496;18.412;2023-06-22T02:43:30;14.00;;;11.60;;
67372;SDS011;54257;54.496;18.412;2023-06-22T02:49:24;14.20;;;12.10;;
67372;SDS011;54257;54.496;18.412;2023-06-22T02:52:13;13.00;;;11.10;;
67372;SDS011;54257;54.496;18.412;2023-06-22T02:54:51;12.20;;;10.50;;
67372;SDS011;54257;54.496;18.412;2023-06-22T02:57:39;16.40;;;11.30;;
67372;SDS011;54257;54.496;18.412;2023-06-22T03:04:07;11.70;;;10.40;;
67372;SDS011;54257;54.496;18.412;2023-06-22T03:07:20;16.10;;;10.90;;
67372;SDS011;54257;54.496;18.412;2023-06-22T03:10:04;14.80;;;11.70;;
67372;SDS011;54257;54.496;18.412;2023-06-22T03:13:16;16.00;;;11.70;;
67372;SDS011;54257;54.496;18.412;2023-06-22T03:16:27;13.50;;;11.20;;
67372;SDS011;54257;54.496;18.412;2023-06-22T03:21:42;12.30;;;9.80;;
67372;SDS011;54257;54.496;18.412;2023-06-22T03:24:10;12.70;;;10.80;;
67372;SDS011;54257;54.496;18.412;2023-06-22T03:26:37;13.10;;;10.10;;
67372;SDS011;54257;54.496;18.412;2023-06-22T03:29:04;15.30;;;10.70;;
67372;SDS011;54257;54.496;18.412;2023-06-22T03:31:31;12.40;;;10.20;;
67372;SDS011;54257;54.496;18.412;2023-06-22T03:33:57;12.60;;;9.20;;
67372;SDS011;54257;54.496;18.412;2023-06-22T03:36:23;11.90;;;10.00;;
67372;SDS011;54257;54.496;18.412;2023-06-22T03:38:50;10.20;;;9.20;;
67372;SDS011;54257;54.496;18.412;2023-06-22T03:41:17;13.20;;;10.20;;
67372;SDS011;54257;54.496;18.412;2023-06-22T03:43:44;12.70;;;10.20;;
67372;SDS011;54257;54.496;18.412;2023-06-22T03:46:10;11.90;;;10.50;;
67372;SDS011;54257;54.496;18.412;2023-06-22T03:48:36;17.50;;;9.90;;
67372;SDS011;54257;54.496;18.412;2023-06-22T03:51:04;11.50;;;9.10;;
67372;SDS011;54257;54.496;18.412;2023-06-22T03:53:31;10.60;;;9.30;;
67372;SDS011;54257;54.496;18.412;2023-06-22T03:56:02;10.60;;;9.50;;
67372;SDS011;54257;54.496;18.412;2023-06-22T03:59:00;12.20;;;8.90;;
67372;SDS011;54257;54.496;18.412;2023-06-22T04:01:50;11.80;;;10.20;;
67372;SDS011;54257;54.496;18.412;2023-06-22T04:04:53;10.70;;;9.60;;
67372;SDS011;54257;54.496;18.412;2023-06-22T04:07:25;12.50;;;9.60;;
67372;SDS011;54257;54.496;18.412;2023-06-22T04:10:13;13.60;;;10.10;;
67372;SDS011;54257;54.496;18.412;2023-06-22T04:13:44;11.50;;;9.20;;
67372;SDS011;54257;54.496;18.412;2023-06-22T04:16:54;10.60;;;8.10;;
67372;SDS011;54257;54.496;18.412;2023-06-22T04:25:51;9.60;;;7.80;;
67372;SDS011;54257;54.496;18.412;2023-06-22T04:28:27;8.80;;;7.90;;
67372;SDS011;54257;54.496;18.412;2023-06-22T04:31:19;9.80;;;8.10;;
67372;SDS011;54257;54.496;18.412;2023-06-22T04:34:01;10.90;;;8.40;;
67372;SDS011;54257;54.496;18.412;2023-06-22T04:37:17;11.10;;;8.70;;
67372;SDS011;54257;54.496;18.412;2023-06-22T04:40:06;11.40;;;8.80;;
67372;SDS011;54257;54.496;18.412;2023-06-22T04:42:42;8.80;;;7.80;;
67372;SDS011;54257;54.496;18.412;2023-06-22T04:49:53;8.60;;;7.40;;
67372;SDS011;54257;54.496;18.412;2023-06-22T04:52:35;11.00;;;7.10;;
67372;SDS011;54257;54.496;18.412;2023-06-22T04:55:11;10.00;;;7.10;;
67372;SDS011;54257;54.496;18.412;2023-06-22T04:57:55;8.80;;;6.70;;
67372;SDS011;54257;54.496;18.412;2023-06-22T05:00:25;8.60;;;5.90;;
67372;SDS011;54257;54.496;18.412;2023-06-22T05:02:52;12.30;;;6.40;;
67372;SDS011;54257;54.496;18.412;2023-06-22T05:05:44;7.40;;;6.70;;
67372;SDS011;54257;54.496;18.412;2023-06-22T05:08:28;8.80;;;6.00;;
67372;SDS011;54257;54.496;18.412;2023-06-22T05:11:25;6.60;;;5.90;;
67372;SDS011;54257;54.496;18.412;2023-06-22T05:14:15;6.70;;;5.70;;
67372;SDS011;54257;54.496;18.412;2023-06-22T05:16:57;6.00;;;4.80;;
67372;SDS011;54257;54.496;18.412;2023-06-22T05:20:22;5.60;;;5.00;;
67372;SDS011;54257;54.496;18.412;2023-06-22T05:25:26;6.70;;;4.30;;
67372;SDS011;54257;54.496;18.412;2023-06-22T05:28:04;5.80;;;4.40;;
67372;SDS011;54257;54.496;18.412;2023-06-22T05:30:47;6.20;;;4.40;;
67372;SDS011;54257;54.496;18.412;2023-06-22T05:33:51;5.80;;;4.20;;
67372;SDS011;54257;54.496;18.412;2023-06-22T05:36:46;6.30;;;4.50;;
67372;SDS011;54257;54.496;18.412;2023-06-22T05:40:10;6.20;;;4.10;;
67372;SDS011;54257;54.496;18.412;2023-06-22T05:43:00;5.40;;;4.20;;
67372;SDS011;54257;54.496;18.412;2023-06-22T05:46:01;7.20;;;4.40;;
67372;SDS011;54257;54.496;18.412;2023-06-22T05:48:59;4.70;;;3.70;;
67372;SDS011;54257;54.496;18.412;2023-06-22T05:51:38;5.10;;;3.60;;
67372;SDS011;54257;54.496;18.412;2023-06-22T05:54:22;4.80;;;3.90;;
67372;SDS011;54257;54.496;18.412;2023-06-22T05:56:49;6.40;;;3.00;;
67372;SDS011;54257;54.496;18.412;2023-06-22T05:59:15;5.50;;;3.30;;
67372;SDS011;54257;54.496;18.412;2023-06-22T06:01:41;4.70;;;3.20;;
67372;SDS011;54257;54.496;18.412;2023-06-22T06:04:07;5.50;;;3.30;;
67372;SDS011;54257;54.496;18.412;2023-06-22T06:06:36;5.50;;;3.30;;
67372;SDS011;54257;54.496;18.412;2023-06-22T06:09:03;4.60;;;3.10;;
67372;SDS011;54257;54.496;18.412;2023-06-22T06:11:30;4.00;;;2.80;;
67372;SDS011;54257;54.496;18.412;2023-06-22T06:13:56;4.50;;;2.60;;
67372;SDS011;54257;54.496;18.412;2023-06-22T06:16:23;7.40;;;2.70;;
67372;SDS011;54257;54.496;18.412;2023-06-22T06:18:49;7.30;;;2.60;;
67372;SDS011;54257;54.496;18.412;2023-06-22T06:21:16;5.40;;;2.70;;
67372;SDS011;54257;54.496;18.412;2023-06-22T06:23:42;5.90;;;2.90;;
67372;SDS011;54257;54.496;18.412;2023-06-22T06:26:08;4.90;;;2.50;;
67372;SDS011;54257;54.496;18.412;2023-06-22T06:28:35;8.80;;;3.10;;
67372;SDS011;54257;54.496;18.412;2023-06-22T06:31:01;3.70;;;3.00;;
67372;SDS011;54257;54.496;18.412;2023-06-22T06:33:27;4.30;;;2.00;;
67372;SDS011;54257;54.496;18.412;2023-06-22T06:35:53;5.90;;;2.30;;
67372;SDS011;54257;54.496;18.412;2023-06-22T06:38:21;4.90;;;2.80;;
67372;SDS011;54257;54.496;18.412;2023-06-22T06:40:47;4.80;;;2.40;;
67372;SDS011;54257;54.496;18.412;2023-06-22T06:43:14;2.90;;;2.20;;
67372;SDS011;54257;54.496;18.412;2023-06-22T06:45:40;3.10;;;2.20;;
67372;SDS011;54257;54.496;18.412;2023-06-22T06:48:06;4.40;;;2.50;;
67372;SDS011;54257;54.496;18.412;2023-06-22T06:50:33;4.00;;;2.40;;
67372;SDS011;54257;54.496;18.412;2023-06-22T06:52:59;7.80;;;2.60;;
67372;SDS011;54257;54.496;18.412;2023-06-22T06:55:25;8.60;;;2.80;;
67372;SDS011;54257;54.496;18.412;2023-06-22T06:57:51;5.00;;;2.40;;
67372;SDS011;54257;54.496;18.412;2023-06-22T07:00:18;6.60;;;2.30;;
67372;SDS011;54257;54.496;18.412;2023-06-22T07:02:44;4.40;;;2.40;;
67372;SDS011;54257;54.496;18.412;2023-06-22T07:05:16;3.30;;;2.10;;
67372;SDS011;54257;54.496;18.412;2023-06-22T07:07:42;3.80;;;2.30;;
67372;SDS011;54257;54.496;18.412;2023-06-22T07:10:11;3.50;;;2.20;;
67372;SDS011;54257;54.496;18.412;2023-06-22T07:12:37;3.30;;;2.10;;
67372;SDS011;54257;54.496;18.412;2023-06-22T07:15:04;4.20;;;2.40;;
67372;SDS011;54257;54.496;18.412;2023-06-22T07:17:36;4.10;;;2.30;;
67372;SDS011;54257;54.496;18.412;2023-06-22T07:20:03;4.70;;;3.00;;
67372;SDS011;54257;54.496;18.412;2023-06-22T07:22:36;3.50;;;2.40;;
67372;SDS011;54257;54.496;18.412;2023-06-22T07:25:02;3.30;;;2.10;;
67372;SDS011;54257;54.496;18.412;2023-06-22T07:27:38;3.10;;;2.30;;
67372;SDS011;54257;54.496;18.412;2023-06-22T07:30:08;3.10;;;2.40;;
67372;SDS011;54257;54.496;18.412;2023-06-22T07:32:35;2.90;;;2.00;;
67372;SDS011;54257;54.496;18.412;2023-06-22T07:35:02;3.10;;;2.20;;
67372;SDS011;54257;54.496;18.412;2023-06-22T07:37:29;2.80;;;2.10;;
67372;SDS011;54257;54.496;18.412;2023-06-22T07:39:56;5.50;;;2.50;;
67372;SDS011;54257;54.496;18.412;2023-06-22T07:42:25;6.00;;;2.40;;
67372;SDS011;54257;54.496;18.412;2023-06-22T07:44:53;5.20;;;2.10;;
67372;SDS011;54257;54.496;18.412;2023-06-22T07:47:20;2.80;;;1.90;;
67372;SDS011;54257;54.496;18.412;2023-06-22T07:49:51;6.20;;;2.30;;
67372;SDS011;54257;54.496;18.412;2023-06-22T07:52:18;2.20;;;2.00;;
67372;SDS011;54257;54.496;18.412;2023-06-22T07:54:44;7.00;;;2.30;;
67372;SDS011;54257;54.496;18.412;2023-06-22T07:57:11;3.40;;;2.30;;
67372;SDS011;54257;54.496;18.412;2023-06-22T07:59:37;4.40;;;2.60;;
67372;SDS011;54257;54.496;18.412;2023-06-22T08:02:03;2.40;;;1.90;;
67372;SDS011;54257;54.496;18.412;2023-06-22T08:04:30;2.70;;;2.20;;
67372;SDS011;54257;54.496;18.412;2023-06-22T08:07:00;5.90;;;2.30;;
67372;SDS011;54257;54.496;18.412;2023-06-22T08:09:30;6.80;;;2.30;;
67372;SDS011;54257;54.496;18.412;2023-06-22T08:11:57;3.30;;;2.30;;
67372;SDS011;54257;54.496;18.412;2023-06-22T08:14:27;4.40;;;2.10;;
67372;SDS011;54257;54.496;18.412;2023-06-22T08:16:57;4.10;;;2.10;;
67372;SDS011;54257;54.496;18.412;2023-06-22T08:19:24;3.30;;;2.50;;
67372;SDS011;54257;54.496;18.412;2023-06-22T08:21:52;4.60;;;2.30;;
67372;SDS011;54257;54.496;18.412;2023-06-22T08:24:19;3.30;;;2.20;;
67372;SDS011;54257;54.496;18.412;2023-06-22T08:26:46;3.80;;;2.30;;
67372;SDS011;54257;54.496;18.412;2023-06-22T08:29:12;3.30;;;2.20;;
67372;SDS011;54257;54.496;18.412;2023-06-22T08:31:39;3.70;;;2.20;;
67372;SDS011;54257;54.496;18.412;2023-06-22T08:34:06;2.40;;;2.00;;
67372;SDS011;54257;54.496;18.412;2023-06-22T08:36:33;4.70;;;2.30;;
67372;SDS011;54257;54.496;18.412;2023-06-22T08:39:07;3.30;;;2.20;;
67372;SDS011;54257;54.496;18.412;2023-06-22T08:41:33;5.20;;;1.90;;
67372;SDS011;54257;54.496;18.412;2023-06-22T08:44:00;4.10;;;2.10;;
67372;SDS011;54257;54.496;18.412;2023-06-22T08:46:26;2.70;;;2.10;;
67372;SDS011;54257;54.496;18.412;2023-06-22T08:48:57;3.40;;;2.30;;
67372;SDS011;54257;54.496;18.412;2023-06-22T08:51:31;2.90;;;1.90;;
67372;SDS011;54257;54.496;18.412;2023-06-22T08:53:58;3.00;;;2.10;;
67372;SDS011;54257;54.496;18.412;2023-06-22T08:56:26;2.90;;;2.00;;
67372;SDS011;54257;54.496;18.412;2023-06-22T08:58:52;3.20;;;2.20;;
67372;SDS011;54257;54.496;18.412;2023-06-22T09:01:18;2.60;;;2.10;;
67372;SDS011;54257;54.496;18.412;2023-06-22T09:03:45;3.50;;;2.10;;
67372;SDS011;54257;54.496;18.412;2023-06-22T09:06:20;4.40;;;2.10;;
67372;SDS011;54257;54.496;18.412;2023-06-22T09:08:47;3.80;;;2.00;;
67372;SDS011;54257;54.496;18.412;2023-06-22T09:11:14;6.70;;;2.50;;
67372;SDS011;54257;54.496;18.412;2023-06-22T09:13:40;3.30;;;2.20;;
67372;SDS011;54257;54.496;18.412;2023-06-22T09:16:06;3.60;;;1.90;;
67372;SDS011;54257;54.496;18.412;2023-06-22T09:18:33;2.30;;;1.70;;
67372;SDS011;54257;54.496;18.412;2023-06-22T09:21:00;3.50;;;2.00;;
67372;SDS011;54257;54.496;18.412;2023-06-22T09:23:26;2.20;;;1.70;;
67372;SDS011;54257;54.496;18.412;2023-06-22T09:25:52;3.80;;;2.30;;
67372;SDS011;54257;54.496;18.412;2023-06-22T09:28:18;2.40;;;2.20;;
67372;SDS011;54257;54.496;18.412;2023-06-22T09:30:45;3.50;;;1.90;;
67372;SDS011;54257;54.496;18.412;2023-06-22T09:33:11;2.80;;;2.00;;
67372;SDS011;54257;54.496;18.412;2023-06-22T09:35:37;5.20;;;1.90;;
67372;SDS011;54257;54.496;18.412;2023-06-22T09:38:03;3.50;;;1.60;;
67372;SDS011;54257;54.496;18.412;2023-06-22T09:40:29;4.30;;;1.90;;
67372;SDS011;54257;54.496;18.412;2023-06-22T09:42:55;2.00;;;1.70;;
67372;SDS011;54257;54.496;18.412;2023-06-22T09:45:21;2.40;;;1.60;;
67372;SDS011;54257;54.496;18.412;2023-06-22T09:47:47;2.20;;;1.90;;
67372;SDS011;54257;54.496;18.412;2023-06-22T09:50:14;2.30;;;1.90;;
67372;SDS011;54257;54.496;18.412;2023-06-22T09:52:40;4.60;;;2.10;;
67372;SDS011;54257;54.496;18.412;2023-06-22T09:55:10;2.40;;;1.80;;
67372;SDS011;54257;54.496;18.412;2023-06-22T09:57:36;2.80;;;2.00;;
67372;SDS011;54257;54.496;18.412;2023-06-22T10:00:02;4.90;;;2.10;;
67372;SDS011;54257;54.496;18.412;2023-06-22T10:02:31;4.50;;;2.00;;
67372;SDS011;54257;54.496;18.412;2023-06-22T10:04:57;4.30;;;2.00;;
67372;SDS011;54257;54.496;18.412;2023-06-22T10:07:23;2.40;;;2.00;;
67372;SDS011;54257;54.496;18.412;2023-06-22T10:09:49;4.30;;;2.10;;
67372;SDS011;54257;54.496;18.412;2023-06-22T10:12:15;5.70;;;1.60;;
67372;SDS011;54257;54.496;18.412;2023-06-22T10:14:41;2.00;;;1.80;;
67372;SDS011;54257;54.496;18.412;2023-06-22T10:17:08;4.70;;;2.40;;
67372;SDS011;54257;54.496;18.412;2023-06-22T10:19:34;3.00;;;2.00;;
67372;SDS011;54257;54.496;18.412;2023-06-22T10:22:04;3.50;;;1.90;;
67372;SDS011;54257;54.496;18.412;2023-06-22T10:24:31;12.50;;;7.00;;
67372;SDS011;54257;54.496;18.412;2023-06-22T10:26:57;3.60;;;1.90;;
67372;SDS011;54257;54.496;18.412;2023-06-22T10:29:24;3.00;;;2.30;;
67372;SDS011;54257;54.496;18.412;2023-06-22T10:31:50;3.00;;;1.80;;
67372;SDS011;54257;54.496;18.412;2023-06-22T10:34:16;2.10;;;1.90;;
67372;SDS011;54257;54.496;18.412;2023-06-22T10:36:43;4.20;;;1.80;;
67372;SDS011;54257;54.496;18.412;2023-06-22T10:39:12;2.80;;;1.70;;
67372;SDS011;54257;54.496;18.412;2023-06-22T10:41:38;2.80;;;2.00;;
67372;SDS011;54257;54.496;18.412;2023-06-22T10:44:04;4.80;;;2.20;;
67372;SDS011;54257;54.496;18.412;2023-06-22T10:46:30;2.80;;;1.60;;
67372;SDS011;54257;54.496;18.412;2023-06-22T10:48:56;2.50;;;1.80;;
67372;SDS011;54257;54.496;18.412;2023-06-22T10:51:24;3.30;;;2.10;;
67372;SDS011;54257;54.496;18.412;2023-06-22T10:53:51;2.50;;;1.70;;
67372;SDS011;54257;54.496;18.412;2023-06-22T10:56:17;2.00;;;1.80;;
67372;SDS011;54257;54.496;18.412;2023-06-22T10:58:44;2.90;;;1.80;;
67372;SDS011;54257;54.496;18.412;2023-06-22T11:01:11;4.30;;;1.90;;
67372;SDS011;54257;54.496;18.412;2023-06-22T11:03:37;5.80;;;1.90;;
67372;SDS011;54257;54.496;18.412;2023-06-22T11:06:04;3.70;;;1.90;;
67372;SDS011;54257;54.496;18.412;2023-06-22T11:08:30;2.70;;;2.00;;
67372;SDS011;54257;54.496;18.412;2023-06-22T11:10:56;3.40;;;2.20;;
67372;SDS011;54257;54.496;18.412;2023-06-22T11:13:22;4.10;;;1.90;;
67372;SDS011;54257;54.496;18.412;2023-06-22T11:15:49;3.20;;;1.90;;
67372;SDS011;54257;54.496;18.412;2023-06-22T11:18:15;2.70;;;2.00;;
67372;SDS011;54257;54.496;18.412;2023-06-22T11:20:42;2.80;;;2.00;;
67372;SDS011;54257;54.496;18.412;2023-06-22T11:23:08;7.40;;;2.40;;
67372;SDS011;54257;54.496;18.412;2023-06-22T11:25:35;2.50;;;1.90;;
67372;SDS011;54257;54.496;18.412;2023-06-22T11:28:02;2.20;;;2.00;;
67372;SDS011;54257;54.496;18.412;2023-06-22T11:30:29;4.10;;;1.80;;
67372;SDS011;54257;54.496;18.412;2023-06-22T11:32:59;2.80;;;1.90;;
67372;SDS011;54257;54.496;18.412;2023-06-22T11:35:25;2.00;;;1.80;;
67372;SDS011;54257;54.496;18.412;2023-06-22T11:37:52;3.90;;;1.80;;
67372;SDS011;54257;54.496;18.412;2023-06-22T11:40:19;4.30;;;1.90;;
67372;SDS011;54257;54.496;18.412;2023-06-22T11:42:45;2.00;;;1.80;;
67372;SDS011;54257;54.496;18.412;2023-06-22T11:45:11;2.80;;;2.00;;
67372;SDS011;54257;54.496;18.412;2023-06-22T11:47:41;3.10;;;1.70;;
67372;SDS011;54257;54.496;18.412;2023-06-22T11:50:11;3.00;;;1.60;;
67372;SDS011;54257;54.496;18.412;2023-06-22T11:52:37;2.50;;;1.70;;
67372;SDS011;54257;54.496;18.412;2023-06-22T11:55:07;2.80;;;1.90;;
67372;SDS011;54257;54.496;18.412;2023-06-22T11:57:34;2.10;;;1.90;;
67372;SDS011;54257;54.496;18.412;2023-06-22T12:00:02;7.40;;;2.20;;
67372;SDS011;54257;54.496;18.412;2023-06-22T12:02:41;2.00;;;1.60;;
67372;SDS011;54257;54.496;18.412;2023-06-22T12:05:08;2.70;;;1.70;;
67372;SDS011;54257;54.496;18.412;2023-06-22T12:07:34;2.40;;;1.90;;
67372;SDS011;54257;54.496;18.412;2023-06-22T12:10:00;3.20;;;2.10;;
67372;SDS011;54257;54.496;18.412;2023-06-22T12:12:27;2.30;;;2.10;;
67372;SDS011;54257;54.496;18.412;2023-06-22T12:14:53;5.20;;;2.20;;
67372;SDS011;54257;54.496;18.412;2023-06-22T12:17:20;2.90;;;2.60;;
67372;SDS011;54257;54.496;18.412;2023-06-22T12:19:46;2.50;;;1.70;;
67372;SDS011;54257;54.496;18.412;2023-06-22T12:22:12;2.90;;;2.50;;
67372;SDS011;54257;54.496;18.412;2023-06-22T12:24:38;3.20;;;2.50;;
67372;SDS011;54257;54.496;18.412;2023-06-22T12:27:04;5.80;;;2.20;;
67372;SDS011;54257;54.496;18.412;2023-06-22T12:35:37;2.70;;;1.70;;
67372;SDS011;54257;54.496;18.412;2023-06-22T12:38:21;2.10;;;1.90;;
67372;SDS011;54257;54.496;18.412;2023-06-22T12:41:10;2.00;;;1.80;;
67372;SDS011;54257;54.496;18.412;2023-06-22T12:44:00;2.70;;;2.00;;
67372;SDS011;54257;54.496;18.412;2023-06-22T12:46:27;4.70;;;1.70;;
67372;SDS011;54257;54.496;18.412;2023-06-22T12:48:55;2.60;;;1.60;;
67372;SDS011;54257;54.496;18.412;2023-06-22T12:54:51;2.00;;;1.80;;
67372;SDS011;54257;54.496;18.412;2023-06-22T12:57:18;3.30;;;1.80;;
67372;SDS011;54257;54.496;18.412;2023-06-22T13:04:13;2.00;;;1.80;;
67372;SDS011;54257;54.496;18.412;2023-06-22T13:06:58;3.30;;;1.60;;
67372;SDS011;54257;54.496;18.412;2023-06-22T13:09:29;2.10;;;1.80;;
67372;SDS011;54257;54.496;18.412;2023-06-22T13:11:55;3.30;;;1.90;;
67372;SDS011;54257;54.496;18.412;2023-06-22T13:14:21;2.60;;;1.40;;
67372;SDS011;54257;54.496;18.412;2023-06-22T13:16:47;3.20;;;2.00;;
67372;SDS011;54257;54.496;18.412;2023-06-22T13:19:14;2.50;;;1.80;;
67372;SDS011;54257;54.496;18.412;2023-06-22T13:21:40;1.80;;;1.70;;
67372;SDS011;54257;54.496;18.412;2023-06-22T13:24:06;1.90;;;1.50;;
67372;SDS011;54257;54.496;18.412;2023-06-22T13:26:33;4.20;;;2.40;;
67372;SDS011;54257;54.496;18.412;2023-06-22T13:28:59;2.40;;;1.90;;
67372;SDS011;54257;54.496;18.412;2023-06-22T13:31:26;1.70;;;1.60;;
67372;SDS011;54257;54.496;18.412;2023-06-22T13:33:52;4.60;;;1.80;;
67372;SDS011;54257;54.496;18.412;2023-06-22T13:36:18;1.70;;;1.60;;
67372;SDS011;54257;54.496;18.412;2023-06-22T13:38:47;2.10;;;1.70;;
67372;SDS011;54257;54.496;18.412;2023-06-22T13:41:14;1.50;;;1.20;;
67372;SDS011;54257;54.496;18.412;2023-06-22T13:43:40;1.80;;;1.70;;
67372;SDS011;54257;54.496;18.412;2023-06-22T13:46:06;1.80;;;1.50;;
67372;SDS011;54257;54.496;18.412;2023-06-22T13:48:35;2.80;;;1.70;;
67372;SDS011;54257;54.496;18.412;2023-06-22T13:51:04;2.20;;;1.30;;
67372;SDS011;54257;54.496;18.412;2023-06-22T13:53:30;2.40;;;1.60;;
67372;SDS011;54257;54.496;18.412;2023-06-22T13:55:56;2.50;;;1.30;;
67372;SDS011;54257;54.496;18.412;2023-06-22T13:58:23;1.70;;;1.60;;
67372;SDS011;54257;54.496;18.412;2023-06-22T14:00:49;1.90;;;1.50;;
67372;SDS011;54257;54.496;18.412;2023-06-22T14:03:16;1.90;;;1.30;;
67372;SDS011;54257;54.496;18.412;2023-06-22T14:05:42;2.60;;;1.80;;
67372;SDS011;54257;54.496;18.412;2023-06-22T14:08:09;4.90;;;1.90;;
67372;SDS011;54257;54.496;18.412;2023-06-22T14:10:35;1.70;;;1.60;;
67372;SDS011;54257;54.496;18.412;2023-06-22T14:13:01;2.30;;;1.70;;
67372;SDS011;54257;54.496;18.412;2023-06-22T14:15:27;3.20;;;1.60;;
67372;SDS011;54257;54.496;18.412;2023-06-22T14:17:53;2.40;;;1.50;;
67372;SDS011;54257;54.496;18.412;2023-06-22T14:20:19;2.30;;;1.70;;
67372;SDS011;54257;54.496;18.412;2023-06-22T14:22:46;2.00;;;1.50;;
67372;SDS011;54257;54.496;18.412;2023-06-22T14:25:14;4.60;;;1.90;;
67372;SDS011;54257;54.496;18.412;2023-06-22T14:27:40;1.50;;;1.40;;
67372;SDS011;54257;54.496;18.412;2023-06-22T14:30:06;2.00;;;1.80;;
67372;SDS011;54257;54.496;18.412;2023-06-22T14:32:33;2.60;;;1.70;;
67372;SDS011;54257;54.496;18.412;2023-06-22T14:35:01;2.20;;;1.80;;
67372;SDS011;54257;54.496;18.412;2023-06-22T14:37:27;2.70;;;2.00;;
67372;SDS011;54257;54.496;18.412;2023-06-22T14:39:53;2.70;;;1.80;;
67372;SDS011;54257;54.496;18.412;2023-06-22T14:42:19;3.70;;;2.00;;
67372;SDS011;54257;54.496;18.412;2023-06-22T14:44:47;2.00;;;1.50;;
67372;SDS011;54257;54.496;18.412;2023-06-22T14:47:14;3.40;;;1.70;;
67372;SDS011;54257;54.496;18.412;2023-06-22T14:49:40;2.10;;;1.80;;
67372;SDS011;54257;54.496;18.412;2023-06-22T14:52:07;1.70;;;1.30;;
67372;SDS011;54257;54.496;18.412;2023-06-22T14:54:35;2.50;;;2.30;;
67372;SDS011;54257;54.496;18.412;2023-06-22T14:57:01;2.30;;;1.70;;
67372;SDS011;54257;54.496;18.412;2023-06-22T14:59:27;2.60;;;1.50;;
67372;SDS011;54257;54.496;18.412;2023-06-22T15:01:53;2.40;;;1.90;;
67372;SDS011;54257;54.496;18.412;2023-06-22T15:04:20;3.10;;;1.60;;
67372;SDS011;54257;54.496;18.412;2023-06-22T15:06:46;3.20;;;1.60;;
67372;SDS011;54257;54.496;18.412;2023-06-22T15:09:12;3.20;;;1.40;;
67372;SDS011;54257;54.496;18.412;2023-06-22T15:11:38;1.50;;;1.40;;
67372;SDS011;54257;54.496;18.412;2023-06-22T15:14:04;1.70;;;1.50;;
67372;SDS011;54257;54.496;18.412;2023-06-22T15:16:30;2.00;;;1.70;;
67372;SDS011;54257;54.496;18.412;2023-06-22T15:18:56;2.30;;;1.70;;
67372;SDS011;54257;54.496;18.412;2023-06-22T15:21:22;2.20;;;1.70;;
67372;SDS011;54257;54.496;18.412;2023-06-22T15:23:49;3.60;;;1.50;;
67372;SDS011;54257;54.496;18.412;2023-06-22T15:26:15;1.60;;;1.40;;
67372;SDS011;54257;54.496;18.412;2023-06-22T15:28:41;1.70;;;1.50;;
67372;SDS011;54257;54.496;18.412;2023-06-22T15:31:07;8.90;;;1.90;;
67372;SDS011;54257;54.496;18.412;2023-06-22T15:33:34;7.60;;;1.90;;
67372;SDS011;54257;54.496;18.412;2023-06-22T15:36:00;3.40;;;2.00;;
67372;SDS011;54257;54.496;18.412;2023-06-22T15:38:29;2.40;;;1.40;;
67372;SDS011;54257;54.496;18.412;2023-06-22T15:40:57;1.50;;;1.30;;
67372;SDS011;54257;54.496;18.412;2023-06-22T15:43:23;1.90;;;1.60;;
67372;SDS011;54257;54.496;18.412;2023-06-22T15:45:49;1.80;;;1.30;;
67372;SDS011;54257;54.496;18.412;2023-06-22T15:48:16;2.90;;;1.80;;
67372;SDS011;54257;54.496;18.412;2023-06-22T15:50:43;8.00;;;2.00;;
67372;SDS011;54257;54.496;18.412;2023-06-22T15:53:09;7.20;;;2.30;;
67372;SDS011;54257;54.496;18.412;2023-06-22T15:55:35;1.50;;;1.40;;
67372;SDS011;54257;54.496;18.412;2023-06-22T15:58:01;1.70;;;1.50;;
67372;SDS011;54257;54.496;18.412;2023-06-22T16:00:28;2.00;;;1.70;;
67372;SDS011;54257;54.496;18.412;2023-06-22T16:02:54;1.60;;;1.50;;
67372;SDS011;54257;54.496;18.412;2023-06-22T16:05:23;2.20;;;1.60;;
67372;SDS011;54257;54.496;18.412;2023-06-22T16:07:56;2.50;;;1.80;;
67372;SDS011;54257;54.496;18.412;2023-06-22T16:10:23;4.60;;;2.00;;
67372;SDS011;54257;54.496;18.412;2023-06-22T16:12:50;2.10;;;1.90;;
67372;SDS011;54257;54.496;18.412;2023-06-22T16:15:19;1.90;;;1.70;;
67372;SDS011;54257;54.496;18.412;2023-06-22T16:17:46;2.40;;;2.00;;
67372;SDS011;54257;54.496;18.412;2023-06-22T16:20:13;3.50;;;1.70;;
67372;SDS011;54257;54.496;18.412;2023-06-22T16:22:43;2.40;;;1.80;;
67372;SDS011;54257;54.496;18.412;2023-06-22T16:25:11;4.80;;;2.10;;
67372;SDS011;54257;54.496;18.412;2023-06-22T16:27:38;3.20;;;1.90;;
67372;SDS011;54257;54.496;18.412;2023-06-22T16:30:07;2.50;;;1.90;;
67372;SDS011;54257;54.496;18.412;2023-06-22T16:32:34;2.30;;;2.00;;